West Cressona, Pennsylvania
Current Conditions -  °F | °C
As of 12:54 AM on Sunday 26 Oct 2014 (Local Time) from KRDG Reporting Station
Overcast Overcast  
Wind Chill: 60°   Ceiling: 8500
Heat Index: 60°   Visibility: 10mi
Dew Point: 48°   Wind: 9mph
Humidity: 64%   Direction: 310°NW
Pressure: 29.61"   Gusts: NA
Location:  40.6285°N, 76.199°W
Report Text: KRDG 260454Z AUTO 31008KT 10SM BKN085 OVC110 16/09 A2961 RMK AO2 SLP030 T01560089 402060050
Loading
Personal Weather Stations






























Interactive Weather Map
Tropical Storm Tracking
New forecast layout! Learn more

10-Day Weather Forecast

Advertisements
Track Severe Weather on mobile